createdAt,value
2018-10-19T00:00:35.360Z,77.80
2018-10-19T00:01:35.347Z,77.93
2018-10-19T00:02:35.337Z,77.61
2018-10-19T00:03:35.322Z,77.17
2018-10-19T00:04:35.316Z,76.88
2018-10-19T00:05:35.295Z,76.88
2018-10-19T00:06:35.287Z,76.50
2018-10-19T00:07:35.275Z,76.03
2018-10-19T00:08:35.259Z,76.50
2018-10-19T00:09:35.245Z,76.88
2018-10-19T00:10:35.233Z,76.98
2018-10-19T00:11:35.215Z,76.98
2018-10-19T00:12:35.211Z,77.17
2018-10-19T00:13:35.200Z,77.17
2018-10-19T00:14:35.184Z,77.93
2018-10-19T00:15:35.174Z,77.64
2018-10-19T00:16:35.162Z,77.93
2018-10-19T00:17:35.150Z,77.83
2018-10-19T00:18:35.134Z,78.31
2018-10-19T00:19:35.132Z,78.03
2018-10-19T00:20:35.110Z,78.31
2018-10-19T00:21:35.102Z,77.93
2018-10-19T00:22:35.082Z,78.22
2018-10-19T00:23:35.073Z,77.93
2018-10-19T00:24:35.060Z,77.93
2018-10-19T00:25:35.046Z,77.93
2018-10-19T00:26:35.027Z,77.64
2018-10-19T00:27:35.020Z,77.36
2018-10-19T00:28:35.008Z,77.55
2018-10-19T00:29:34.995Z,76.40
2018-10-19T00:30:34.982Z,76.59
2018-10-19T00:31:34.976Z,76.84
2018-10-19T00:32:34.962Z,76.65
2018-10-19T00:33:34.951Z,77.13
2018-10-19T00:34:34.936Z,77.51
2018-10-19T00:35:34.918Z,77.42
2018-10-19T00:36:34.972Z,77.51
2018-10-19T00:37:34.896Z,77.03
2018-10-19T00:38:34.900Z,77.51
2018-10-19T00:39:34.870Z,77.13
2018-10-19T00:40:34.862Z,76.75
2018-10-19T00:41:34.846Z,76.75
2018-10-19T00:42:34.831Z,76.37
2018-10-19T00:43:34.819Z,76.84
2018-10-19T00:44:34.805Z,76.75
2018-10-19T00:45:34.794Z,76.37
2018-10-19T00:46:34.780Z,76.18
2018-10-19T00:47:34.770Z,76.65
2018-10-19T00:48:34.752Z,76.56
2018-10-19T00:49:34.741Z,76.75
2018-10-19T00:50:34.733Z,77.13
2018-10-19T00:51:34.723Z,76.65
2018-10-19T00:52:34.705Z,76.46
2018-10-19T00:53:34.689Z,76.46
2018-10-19T00:54:34.678Z,76.46
2018-10-19T00:55:34.672Z,76.37
2018-10-19T00:56:34.654Z,75.74
2018-10-19T00:57:34.644Z,75.60
2018-10-19T00:58:34.634Z,75.51
2018-10-19T00:59:34.616Z,75.42
2018-10-19T01:00:34.606Z,75.70
2018-10-19T01:01:34.591Z,75.89
2018-10-19T01:02:34.575Z,75.32
2018-10-19T01:03:34.565Z,75.51
2018-10-19T01:04:34.550Z,75.42
2018-10-19T01:05:34.540Z,75.32
2018-10-19T01:06:34.525Z,75.51
2018-10-19T01:07:34.513Z,75.23
2018-10-19T01:08:34.505Z,75.60
2018-10-19T01:09:34.488Z,75.51
2018-10-19T01:10:34.475Z,75.70
2018-10-19T01:11:34.467Z,75.51
2018-10-19T01:12:34.449Z,75.51
2018-10-19T01:13:34.432Z,75.70
2018-10-19T01:14:34.432Z,75.89
2018-10-19T01:15:34.407Z,75.51
2018-10-19T01:16:34.402Z,75.23
2018-10-19T01:17:34.383Z,75.99
2018-10-19T01:18:34.373Z,75.60
2018-10-19T01:19:34.358Z,75.89
2018-10-19T01:20:34.355Z,76.18
2018-10-19T01:21:34.334Z,76.18
2018-10-19T01:22:34.319Z,76.18
2018-10-19T01:23:34.314Z,75.89
2018-10-19T01:24:34.296Z,75.99
2018-10-19T01:25:34.281Z,75.99
2018-10-19T01:26:34.274Z,76.18
2018-10-19T01:27:34.255Z,76.18
2018-10-19T01:28:34.257Z,75.51
2018-10-19T01:29:34.233Z,76.27
2018-10-19T01:30:34.213Z,76.27
2018-10-19T01:31:34.211Z,75.89
2018-10-19T01:32:34.188Z,76.08
2018-10-19T01:33:34.184Z,75.89
2018-10-19T01:34:34.171Z,75.99
2018-10-19T01:35:34.173Z,76.27
2018-10-19T01:36:34.144Z,76.46
2018-10-19T01:37:34.130Z,75.99
2018-10-19T01:38:34.121Z,75.32
2018-10-19T01:39:34.109Z,74.94
2018-10-19T01:40:34.094Z,74.56
2018-10-19T01:41:34.078Z,75.04
2018-10-19T01:42:34.069Z,75.32
2018-10-19T01:43:34.055Z,75.13
2018-10-19T01:44:34.039Z,74.84
2018-10-19T01:45:34.026Z,74.94
2018-10-19T01:46:34.019Z,74.94
2018-10-19T01:47:34.003Z,75.32
2018-10-19T01:48:33.987Z,74.84
2018-10-19T01:49:33.979Z,75.04
2018-10-19T01:50:33.965Z,74.94
2018-10-19T01:51:33.953Z,75.23
2018-10-19T01:52:33.939Z,75.04
2018-10-19T01:53:33.924Z,75.51
2018-10-19T01:54:33.910Z,75.79
2018-10-19T01:55:33.900Z,75.42
2018-10-19T01:56:33.888Z,75.51
2018-10-19T01:57:33.879Z,75.42
2018-10-19T01:58:33.861Z,75.70
2018-10-19T01:59:33.853Z,75.60
2018-10-19T02:00:33.839Z,75.04
2018-10-19T02:01:33.827Z,75.13
2018-10-19T02:02:33.811Z,75.60
2018-10-19T02:03:33.800Z,75.70
2018-10-19T02:04:33.789Z,75.60
2018-10-19T02:05:33.789Z,75.89
2018-10-19T02:06:33.766Z,75.99
2018-10-19T02:07:33.744Z,75.89
2018-10-19T02:08:33.734Z,75.51
2018-10-19T02:09:33.723Z,75.99
2018-10-19T02:10:33.710Z,75.51
2018-10-19T02:11:33.696Z,75.23
2018-10-19T02:12:33.680Z,75.79
2018-10-19T02:13:33.669Z,75.16
2018-10-19T02:14:33.657Z,74.79
2018-10-19T02:15:33.647Z,74.79
2018-10-19T02:16:33.633Z,74.40
2018-10-19T02:17:33.623Z,74.40
2018-10-19T02:18:33.607Z,73.65
2018-10-19T02:19:33.599Z,73.07
2018-10-19T02:20:33.581Z,72.88
2018-10-19T02:21:33.570Z,73.07
2018-10-19T02:22:33.561Z,72.88
2018-10-19T02:23:33.544Z,72.44
2018-10-19T02:24:33.543Z,72.72
2018-10-19T02:25:33.522Z,72.25
2018-10-19T02:26:33.503Z,73.21
2018-10-19T02:27:33.497Z,72.92
2018-10-19T02:28:33.482Z,72.92
2018-10-19T02:29:33.467Z,73.21
2018-10-19T02:30:33.457Z,73.01
2018-10-19T02:31:33.439Z,73.21
2018-10-19T02:32:33.436Z,73.01
2018-10-19T02:33:33.413Z,73.30
2018-10-19T02:34:33.406Z,73.11
2018-10-19T02:35:33.392Z,72.92
2018-10-19T02:36:33.381Z,72.72
2018-10-19T02:37:33.365Z,72.92
2018-10-19T02:38:33.350Z,72.69
2018-10-19T02:39:33.344Z,73.07
2018-10-19T02:40:33.328Z,73.07
2018-10-19T02:41:33.319Z,72.88
2018-10-19T02:42:33.299Z,73.07
2018-10-19T02:43:33.287Z,73.07
2018-10-19T02:44:33.282Z,73.83
2018-10-19T02:45:33.264Z,73.55
2018-10-19T02:46:33.249Z,73.55
2018-10-19T02:47:33.232Z,73.26
2018-10-19T02:48:33.223Z,73.65
2018-10-19T02:49:33.215Z,73.74
2018-10-19T02:50:33.199Z,73.65
2018-10-19T02:51:33.186Z,74.12
2018-10-19T02:52:33.178Z,74.31
2018-10-19T02:53:33.157Z,74.21
2018-10-19T02:54:33.149Z,74.50
2018-10-19T02:55:33.137Z,74.12
2018-10-19T02:56:33.121Z,74.40
2018-10-19T02:57:33.110Z,74.27
2018-10-19T02:58:33.095Z,74.31
2018-10-19T02:59:33.087Z,74.08
2018-10-19T03:00:33.075Z,74.79
2018-10-19T03:01:33.058Z,74.21
2018-10-19T03:02:33.042Z,74.18
2018-10-19T03:03:33.037Z,74.31
2018-10-19T03:04:33.024Z,74.84
2018-10-19T03:05:33.009Z,74.94
2018-10-19T03:06:32.997Z,74.65
2018-10-19T03:07:32.993Z,74.79
2018-10-19T03:08:32.969Z,74.75
2018-10-19T03:09:32.954Z,74.56
2018-10-19T03:10:32.955Z,74.69
2018-10-19T03:11:32.977Z,75.13
2018-10-19T03:12:32.921Z,75.32
2018-10-19T03:13:32.905Z,75.32
2018-10-19T03:14:32.895Z,75.23
2018-10-19T03:15:32.882Z,75.99
2018-10-19T03:16:32.867Z,75.70
2018-10-19T03:17:32.855Z,75.89
2018-10-19T03:18:32.848Z,75.51
2018-10-19T03:19:32.832Z,75.79
2018-10-19T03:20:32.822Z,75.23
2018-10-19T03:21:32.807Z,75.60
2018-10-19T03:22:32.791Z,75.42
2018-10-19T03:23:32.782Z,75.23
2018-10-19T03:24:32.765Z,75.04
2018-10-19T03:25:32.757Z,74.94
2018-10-19T03:26:32.739Z,75.04
2018-10-19T03:27:32.733Z,74.65
2018-10-19T03:28:32.717Z,74.56
2018-10-19T03:29:32.702Z,74.84
2018-10-19T03:30:32.694Z,74.94
2018-10-19T03:31:32.678Z,75.32
2018-10-19T03:32:32.665Z,74.84
2018-10-19T03:33:32.647Z,74.94
2018-10-19T03:34:32.637Z,74.65
2018-10-19T03:35:32.625Z,74.94
2018-10-19T03:36:32.611Z,74.75
2018-10-19T03:37:32.608Z,74.84
2018-10-19T03:38:32.585Z,74.94
2018-10-19T03:39:32.575Z,74.84
2018-10-19T03:40:32.567Z,75.32
2018-10-19T03:41:32.552Z,74.94
2018-10-19T03:42:32.539Z,74.84
2018-10-19T03:43:32.524Z,74.08
2018-10-19T03:44:32.512Z,74.75
2018-10-19T03:45:32.498Z,74.27
2018-10-19T03:46:32.488Z,74.37
2018-10-19T03:47:32.472Z,74.56
2018-10-19T03:48:32.468Z,74.08
2018-10-19T03:49:32.449Z,74.75
2018-10-19T03:50:32.430Z,75.42
2018-10-19T03:51:32.422Z,75.13
2018-10-19T03:52:32.407Z,74.94
2018-10-19T03:53:32.395Z,74.84
2018-10-19T03:54:32.380Z,75.04
2018-10-19T03:55:32.367Z,74.84
2018-10-19T03:56:32.357Z,74.65
2018-10-19T03:57:32.342Z,74.75
2018-10-19T03:58:32.333Z,74.27
2018-10-19T03:59:32.322Z,73.99
2018-10-19T04:00:32.307Z,74.08
2018-10-19T04:01:32.293Z,74.08
2018-10-19T04:02:32.278Z,74.08
2018-10-19T04:03:32.310Z,74.18
2018-10-19T04:04:32.253Z,74.46
2018-10-19T04:05:32.242Z,74.27
2018-10-19T04:06:32.229Z,74.27
2018-10-19T04:07:32.220Z,74.08
2018-10-19T04:08:32.200Z,74.18
2018-10-19T04:09:32.202Z,74.84
2018-10-19T04:10:32.180Z,74.56
2018-10-19T04:11:32.161Z,74.56
2018-10-19T04:12:32.152Z,74.94
2018-10-19T04:13:32.141Z,74.56
2018-10-19T04:14:32.126Z,74.75
2018-10-19T04:15:32.111Z,74.27
2018-10-19T04:16:32.102Z,74.27
2018-10-19T04:17:32.089Z,74.27
2018-10-19T04:18:32.071Z,74.08
2018-10-19T04:19:32.061Z,74.18
2018-10-19T04:20:32.049Z,74.75
2018-10-19T04:21:32.040Z,74.75
2018-10-19T04:22:32.020Z,74.84
2018-10-19T04:23:32.013Z,74.56
2018-10-19T04:24:32.000Z,74.65
2018-10-19T04:25:31.986Z,74.84
2018-10-19T04:26:31.973Z,75.04
2018-10-19T04:27:31.969Z,74.75
2018-10-19T04:28:31.946Z,74.65
2018-10-19T04:29:31.939Z,74.27
2018-10-19T04:30:31.921Z,74.65
2018-10-19T04:31:31.909Z,74.18
2018-10-19T04:32:31.895Z,74.27
2018-10-19T04:33:31.885Z,74.18
2018-10-19T04:34:31.872Z,74.18
2018-10-19T04:35:31.865Z,74.46
2018-10-19T04:36:31.846Z,73.99
2018-10-19T04:37:31.835Z,74.37
2018-10-19T04:38:31.821Z,74.37
2018-10-19T04:39:31.807Z,74.27
2018-10-19T04:40:31.800Z,74.27
2018-10-19T04:41:31.869Z,74.65
2018-10-19T04:42:31.769Z,74.65
2018-10-19T04:43:31.753Z,74.46
2018-10-19T04:44:31.745Z,74.27
2018-10-19T04:45:31.728Z,74.18
2018-10-19T04:46:31.716Z,74.46
2018-10-19T04:47:31.755Z,74.18
2018-10-19T04:48:31.688Z,74.84
2018-10-19T04:49:31.680Z,74.65
2018-10-19T04:50:31.668Z,74.75
2018-10-19T04:51:31.658Z,74.56
2018-10-19T04:52:31.640Z,75.13
2018-10-19T04:53:31.633Z,74.84
2018-10-19T04:54:31.615Z,74.84
2018-10-19T04:55:31.601Z,75.13
2018-10-19T04:56:31.589Z,75.13
2018-10-19T04:57:31.579Z,75.23
2018-10-19T04:58:31.563Z,74.94
2018-10-19T04:59:31.551Z,74.65
2018-10-19T05:00:31.545Z,74.65
2018-10-19T05:01:31.522Z,74.75
2018-10-19T05:02:31.566Z,74.84
2018-10-19T05:03:31.498Z,74.65
2018-10-19T05:04:31.503Z,74.27
2018-10-19T05:05:31.524Z,74.84
2018-10-19T05:06:31.523Z,74.27
2018-10-19T05:07:31.450Z,74.08
2018-10-19T05:08:31.441Z,74.75
2018-10-19T05:09:31.422Z,74.18
2018-10-19T05:10:31.413Z,74.37
2018-10-19T05:11:31.394Z,74.08
2018-10-19T05:12:31.523Z,73.89
2018-10-19T05:13:31.375Z,74.18
2018-10-19T05:14:31.355Z,75.23
2018-10-19T05:15:31.348Z,74.18
2018-10-19T05:16:31.334Z,74.18
2018-10-19T05:17:31.313Z,74.65
2018-10-19T05:18:31.305Z,74.71
2018-10-19T05:19:31.287Z,74.65
2018-10-19T05:20:31.282Z,74.90
2018-10-19T05:21:31.265Z,75.09
2018-10-19T05:22:31.255Z,75.09
2018-10-19T05:23:31.239Z,74.90
2018-10-19T05:24:31.280Z,74.80
2018-10-19T05:25:31.214Z,75.19
2018-10-19T05:26:31.199Z,75.28
2018-10-19T05:27:31.190Z,74.71
2018-10-19T05:28:31.174Z,74.71
2018-10-19T05:29:31.164Z,74.80
2018-10-19T05:30:31.152Z,74.80
2018-10-19T05:31:31.139Z,74.80
2018-10-19T05:32:31.127Z,75.28
2018-10-19T05:33:31.107Z,75.38
2018-10-19T05:34:31.101Z,75.38
2018-10-19T05:35:31.081Z,75.28
2018-10-19T05:36:31.073Z,75.28
2018-10-19T05:37:31.052Z,75.09
2018-10-19T05:38:31.047Z,75.09
2018-10-19T05:39:31.031Z,75.38
2018-10-19T05:40:31.023Z,75.09
2018-10-19T05:41:31.007Z,75.57
2018-10-19T05:42:30.988Z,75.47
2018-10-19T05:43:31.046Z,75.67
2018-10-19T05:44:30.966Z,75.28
2018-10-19T05:45:30.956Z,75.38
2018-10-19T05:46:30.942Z,75.47
2018-10-19T05:47:30.926Z,75.67
2018-10-19T05:48:30.918Z,76.14
2018-10-19T05:49:30.903Z,76.14
2018-10-19T05:50:30.892Z,75.85
2018-10-19T05:51:30.875Z,75.47
2018-10-19T05:52:30.861Z,75.67
2018-10-19T05:53:30.849Z,75.57
2018-10-19T05:54:30.836Z,75.38
2018-10-19T05:55:30.823Z,75.47
2018-10-19T05:56:30.809Z,75.38
2018-10-19T05:57:30.795Z,75.38
2018-10-19T05:58:30.787Z,75.47
2018-10-19T05:59:30.771Z,75.28
2018-10-19T06:00:30.774Z,75.19
2018-10-19T06:01:30.747Z,75.57
2018-10-19T06:02:30.793Z,75.57
2018-10-19T06:03:30.720Z,74.94
2018-10-19T06:04:30.708Z,75.47
2018-10-19T06:05:30.693Z,74.80
2018-10-19T06:06:30.683Z,75.09
2018-10-19T06:07:30.667Z,74.62
2018-10-19T06:08:30.656Z,74.71
2018-10-19T06:09:30.640Z,74.80
2018-10-19T06:10:30.629Z,74.90
2018-10-19T06:11:30.616Z,74.62
2018-10-19T06:12:30.600Z,74.65
2018-10-19T06:13:30.701Z,75.13
2018-10-19T06:14:30.575Z,74.94
2018-10-19T06:15:30.565Z,75.23
2018-10-19T06:16:30.553Z,75.32
2018-10-19T06:17:30.534Z,75.32
2018-10-19T06:18:30.522Z,74.84
2018-10-19T06:19:30.510Z,75.70
2018-10-19T06:20:30.508Z,75.51
2018-10-19T06:21:30.479Z,75.42
2018-10-19T06:22:30.472Z,75.13
2018-10-19T06:23:30.458Z,75.51
2018-10-19T06:24:30.444Z,75.13
2018-10-19T06:25:30.427Z,74.94
2018-10-19T06:26:30.455Z,74.94
2018-10-19T06:27:30.403Z,74.94
2018-10-19T06:28:30.386Z,74.75
2018-10-19T06:29:30.374Z,74.75
2018-10-19T06:30:30.364Z,75.32
2018-10-19T06:31:30.351Z,74.75
2018-10-19T06:32:30.340Z,74.94
2018-10-19T06:33:30.333Z,74.46
2018-10-19T06:34:30.315Z,74.27
2018-10-19T06:35:30.302Z,74.62
2018-10-19T06:36:30.296Z,74.52
2018-10-19T06:37:30.274Z,74.65
2018-10-19T06:38:30.262Z,74.94
2018-10-19T06:39:30.249Z,75.38
2018-10-19T06:40:30.283Z,75.32
2018-10-19T06:41:30.222Z,74.65
2018-10-19T06:42:30.206Z,74.80
2018-10-19T06:43:30.193Z,74.52
2018-10-19T06:44:30.186Z,74.71
2018-10-19T06:45:30.166Z,74.65
2018-10-19T06:46:30.243Z,74.27
2018-10-19T06:47:30.143Z,74.37
2018-10-19T06:48:30.128Z,73.99
2018-10-19T06:49:30.117Z,74.46
2018-10-19T06:50:30.103Z,74.37
2018-10-19T06:51:30.089Z,74.84
2018-10-19T06:52:30.077Z,74.65
2018-10-19T06:53:30.066Z,74.46
2018-10-19T06:54:30.052Z,74.27
2018-10-19T06:55:30.045Z,74.46
2018-10-19T06:56:30.026Z,74.56
2018-10-19T06:57:30.012Z,74.08
2018-10-19T06:58:30.004Z,74.08
2018-10-19T06:59:30.191Z,74.37
2018-10-19T07:00:29.971Z,74.27
2018-10-19T07:01:29.958Z,74.27
2018-10-19T07:02:29.949Z,74.46
2018-10-19T07:03:29.936Z,74.08
2018-10-19T07:04:29.925Z,74.56
2018-10-19T07:05:29.942Z,74.65
2018-10-19T07:06:29.895Z,74.84
2018-10-19T07:07:29.883Z,75.32
2018-10-19T07:08:29.971Z,75.60
2018-10-19T07:09:29.858Z,75.23
2018-10-19T07:10:29.850Z,75.13
2018-10-19T07:11:29.834Z,75.51
2018-10-19T07:12:29.821Z,75.60
2018-10-19T07:13:29.801Z,75.60
2018-10-19T07:14:29.795Z,75.16
2018-10-19T07:15:29.779Z,74.79
2018-10-19T07:16:29.769Z,74.88
2018-10-19T07:17:29.753Z,74.50
2018-10-19T07:18:29.744Z,74.21
2018-10-19T07:19:29.732Z,74.31
2018-10-19T07:20:29.713Z,73.87
2018-10-19T07:21:29.721Z,73.68
2018-10-19T07:22:29.690Z,74.06
2018-10-19T07:23:29.678Z,73.77
2018-10-19T07:24:29.664Z,73.49
2018-10-19T07:25:29.655Z,73.49
2018-10-19T07:26:29.637Z,72.92
2018-10-19T07:27:29.625Z,72.86
2018-10-19T07:28:29.617Z,71.81
2018-10-19T07:29:29.647Z,71.72
2018-10-19T07:30:29.591Z,71.23
2018-10-19T07:31:29.573Z,71.04
2018-10-19T07:32:36.221Z,70.38
2018-10-19T07:33:29.554Z,70.28
2018-10-19T07:34:29.536Z,70.47
2018-10-19T07:35:29.524Z,70.22
2018-10-19T07:36:29.590Z,70.89
2018-10-19T07:37:29.504Z,71.27
2018-10-19T07:38:29.488Z,71.27
2018-10-19T07:39:29.474Z,71.21
2018-10-19T07:40:29.465Z,70.83
2018-10-19T07:41:29.454Z,70.45
2018-10-19T07:42:29.441Z,71.02
2018-10-19T07:43:29.424Z,70.54
2018-10-19T07:44:29.415Z,70.64
2018-10-19T07:45:29.400Z,70.20
2018-10-19T07:46:29.388Z,69.53
2018-10-19T07:47:29.484Z,68.86
2018-10-19T07:48:29.367Z,68.67
2018-10-19T07:49:29.351Z,68.48
2018-10-19T07:50:29.335Z,67.14
2018-10-19T07:51:29.329Z,66.31
2018-10-19T07:52:29.320Z,66.13
2018-10-19T07:53:29.303Z,66.41
2018-10-19T07:54:29.346Z,66.50
2018-10-19T07:55:29.276Z,66.60
2018-10-19T07:56:29.269Z,66.99
2018-10-19T07:57:29.252Z,66.83
2018-10-19T07:58:29.248Z,67.02
2018-10-19T07:59:29.232Z,67.21
2018-10-19T08:00:29.225Z,67.11
2018-10-19T08:01:29.206Z,66.54
2018-10-19T08:02:29.197Z,66.54
2018-10-19T08:03:29.189Z,66.25
2018-10-19T08:04:29.178Z,65.58
2018-10-19T08:05:29.164Z,65.77
2018-10-19T08:06:29.149Z,66.54
2018-10-19T08:07:29.139Z,65.68
2018-10-19T08:08:29.131Z,64.85
2018-10-19T08:09:29.113Z,63.70
2018-10-19T08:10:29.109Z,63.89
2018-10-19T08:11:29.103Z,63.89
2018-10-19T08:12:29.093Z,64.95
2018-10-19T08:13:29.076Z,65.14
2018-10-19T08:14:29.064Z,64.40
2018-10-19T08:15:29.050Z,64.59
2018-10-19T08:16:29.038Z,64.79
2018-10-19T08:17:29.031Z,64.69
2018-10-19T08:18:29.017Z,63.64
2018-10-19T08:19:29.001Z,64.98
2018-10-19T08:20:28.992Z,64.02
2018-10-19T08:21:28.986Z,63.93
2018-10-19T08:22:28.975Z,63.48
2018-10-19T08:23:28.965Z,63.48
2018-10-19T08:24:28.952Z,62.90
2018-10-19T08:25:28.942Z,62.43
2018-10-19T08:26:28.932Z,61.76
2018-10-19T08:27:28.998Z,59.94
2018-10-19T08:28:28.907Z,59.55
2018-10-19T08:29:28.909Z,60.03
2018-10-19T08:30:28.887Z,60.89
2018-10-19T08:31:28.881Z,61.66
2018-10-19T08:32:28.873Z,61.40
2018-10-19T08:33:28.859Z,62.17
2018-10-19T08:34:28.847Z,62.17
2018-10-19T08:35:28.833Z,62.07
2018-10-19T08:36:28.831Z,61.98
2018-10-19T08:37:28.872Z,61.60
2018-10-19T08:38:28.809Z,61.34
2018-10-19T08:39:28.790Z,61.05
2018-10-19T08:40:28.790Z,60.09
2018-10-19T08:41:28.787Z,60.28
2018-10-19T08:42:28.768Z,60.00
2018-10-19T08:43:28.753Z,60.22
2018-10-19T08:44:28.749Z,60.12
2018-10-19T08:45:28.733Z,59.83
2018-10-19T08:46:28.721Z,59.16
2018-10-19T08:47:28.779Z,59.45
2018-10-19T08:48:28.706Z,60.09
2018-10-19T08:49:28.692Z,60.28
2018-10-19T08:50:28.681Z,60.06
2018-10-19T08:51:28.673Z,60.25
2018-10-19T08:52:28.660Z,60.73
2018-10-19T08:53:28.712Z,60.93
2018-10-19T08:54:28.689Z,61.11
2018-10-19T08:55:28.692Z,61.60
2018-10-19T08:56:28.620Z,62.07
2018-10-19T08:57:28.620Z,61.31
2018-10-19T08:58:28.603Z,60.93
2018-10-19T08:59:28.593Z,61.11
2018-10-19T09:00:28.585Z,60.93
2018-10-19T09:01:28.575Z,60.64
2018-10-19T09:02:28.561Z,60.64
2018-10-19T09:03:28.587Z,60.25
2018-10-19T09:04:28.540Z,61.50
2018-10-19T09:05:28.529Z,61.60
2018-10-19T09:06:28.523Z,61.15
2018-10-19T09:07:28.513Z,60.28
2018-10-19T09:08:28.500Z,60.19
2018-10-19T09:09:28.489Z,57.50
2018-10-19T09:10:28.487Z,57.79
2018-10-19T09:11:28.558Z,58.65
2018-10-19T09:12:28.504Z,58.56
2018-10-19T09:13:28.453Z,58.65
2018-10-19T09:14:28.441Z,58.27
2018-10-19T09:15:28.451Z,58.46
2018-10-19T09:16:28.425Z,58.46
2018-10-19T09:17:28.409Z,58.37
2018-10-19T09:18:28.447Z,59.04
2018-10-19T09:19:28.397Z,60.31
2018-10-19T09:20:28.380Z,59.93
2018-10-19T09:21:28.372Z,60.31
2018-10-19T09:22:28.366Z,60.41
2018-10-19T09:23:28.359Z,59.36
2018-10-19T09:24:28.347Z,58.04
2018-10-19T09:25:28.336Z,56.41
2018-10-19T09:26:28.323Z,54.97
2018-10-19T09:27:28.316Z,53.72
2018-10-19T09:28:28.306Z,54.23
2018-10-19T09:29:28.344Z,54.33
2018-10-19T09:30:28.286Z,53.20
2018-10-19T09:31:28.284Z,52.81
2018-10-19T09:32:28.271Z,52.72
2018-10-19T09:33:28.260Z,54.06
2018-10-19T09:34:28.250Z,51.86
2018-10-19T09:35:28.328Z,52.14
2018-10-19T09:36:28.452Z,51.76
2018-10-19T09:37:28.230Z,51.86
2018-10-19T09:38:28.213Z,52.24
2018-10-19T09:39:28.206Z,52.72
2018-10-19T09:40:28.198Z,53.11
2018-10-19T09:41:28.265Z,52.79
2018-10-19T09:42:28.177Z,52.72
2018-10-19T09:43:28.167Z,53.01
2018-10-19T09:44:28.166Z,53.20
2018-10-19T09:45:28.153Z,52.91
2018-10-19T09:46:28.145Z,52.34
2018-10-19T09:47:28.157Z,51.86
2018-10-19T09:48:28.132Z,52.24
2018-10-19T09:49:28.112Z,50.70
2018-10-19T09:50:28.110Z,50.54
2018-10-19T09:51:28.104Z,50.25
2018-10-19T09:52:28.090Z,49.38
2018-10-19T09:53:28.085Z,50.63
2018-10-19T09:54:28.069Z,51.02
2018-10-19T09:55:28.061Z,51.31
2018-10-19T09:56:28.061Z,51.33
2018-10-19T09:57:28.046Z,52.00
2018-10-19T09:58:28.045Z,51.33
2018-10-19T09:59:28.030Z,51.33
2018-10-19T10:00:28.024Z,51.43
2018-10-19T10:01:28.016Z,51.04
2018-10-19T10:02:28.002Z,51.14
2018-10-19T10:03:27.993Z,52.58
2018-10-19T10:04:27.992Z,49.89
2018-10-19T10:05:27.979Z,48.83
2018-10-19T10:06:27.967Z,48.38
2018-10-19T10:07:27.961Z,49.02
2018-10-19T10:08:27.951Z,48.45
2018-10-19T10:09:27.941Z,48.57
2018-10-19T10:10:27.937Z,48.66
2018-10-19T10:11:27.929Z,48.57
2018-10-19T10:12:27.920Z,50.49
2018-10-19T10:13:27.908Z,49.53
2018-10-19T10:14:27.910Z,49.63
2018-10-19T10:15:27.973Z,48.95
2018-10-19T10:16:27.890Z,48.28
2018-10-19T10:17:27.882Z,47.99
2018-10-19T10:18:27.866Z,47.51
2018-10-19T10:19:27.862Z,48.47
2018-10-19T10:20:27.857Z,50.68
2018-10-19T10:21:27.841Z,50.99
2018-10-19T10:22:27.842Z,50.23
2018-10-19T10:23:27.843Z,49.05
2018-10-19T10:24:27.815Z,48.38
2018-10-19T10:25:27.818Z,47.51
2018-10-19T10:26:27.804Z,47.70
2018-10-19T10:27:27.800Z,48.28
2018-10-19T10:28:27.788Z,47.70
2018-10-19T10:29:27.777Z,46.93
2018-10-19T10:30:27.773Z,48.49
2018-10-19T10:31:27.762Z,49.65
2018-10-19T10:32:27.836Z,48.30
2018-10-19T10:33:27.747Z,48.79
2018-10-19T10:34:27.746Z,47.82
2018-10-19T10:35:27.733Z,48.02
2018-10-19T10:36:27.733Z,47.34
2018-10-19T10:37:27.716Z,47.05
2018-10-19T10:38:27.712Z,46.47
2018-10-19T10:39:27.708Z,47.24
2018-10-19T10:40:27.701Z,48.88
2018-10-19T10:41:27.682Z,48.59
2018-10-19T10:42:27.684Z,48.11
2018-10-19T10:43:27.672Z,49.48
2018-10-19T10:44:27.664Z,49.00
2018-10-19T10:45:27.657Z,48.23
2018-10-19T10:46:27.655Z,46.11
2018-10-19T10:47:27.640Z,46.78
2018-10-19T10:48:27.632Z,46.21
2018-10-19T10:49:27.623Z,45.53
2018-10-19T10:50:27.615Z,45.15
2018-10-19T10:51:27.605Z,44.86
2018-10-19T10:52:27.599Z,45.63
2018-10-19T10:53:27.594Z,46.69
2018-10-19T10:54:27.588Z,45.42
2018-10-19T10:55:27.578Z,44.65
2018-10-19T10:56:27.572Z,44.55
2018-10-19T10:57:27.563Z,45.61
2018-10-19T10:58:27.553Z,46.21
2018-10-19T10:59:27.547Z,46.59
2018-10-19T11:00:27.543Z,45.83
2018-10-19T11:01:27.534Z,44.76
2018-10-19T11:02:27.528Z,45.63
2018-10-19T11:03:27.517Z,45.83
2018-10-19T11:04:27.508Z,45.44
2018-10-19T11:05:27.500Z,46.01
2018-10-19T11:06:27.493Z,47.27
2018-10-19T11:07:27.677Z,46.11
2018-10-19T11:08:27.481Z,44.96
2018-10-19T11:09:27.473Z,45.05
2018-10-19T11:10:27.461Z,44.67
2018-10-19T11:11:27.459Z,46.01
2018-10-19T11:12:27.448Z,46.59
2018-10-19T11:13:27.441Z,44.57
2018-10-19T11:14:27.435Z,45.34
2018-10-19T11:15:27.429Z,46.59
2018-10-19T11:16:27.421Z,46.21
2018-10-19T11:17:27.409Z,46.42
2018-10-19T11:18:27.400Z,46.01
2018-10-19T11:19:27.402Z,46.71
2018-10-19T11:20:27.390Z,45.83
2018-10-19T11:21:27.381Z,46.62
2018-10-19T11:22:27.375Z,45.84
2018-10-19T11:23:27.367Z,46.91
2018-10-19T11:24:27.361Z,46.23
2018-10-19T11:25:27.352Z,44.98
2018-10-19T11:26:27.340Z,45.27
2018-10-19T11:27:27.334Z,45.36
2018-10-19T11:28:27.330Z,45.36
2018-10-19T11:29:27.325Z,45.58
2018-10-19T11:30:27.332Z,45.27
2018-10-19T11:31:27.301Z,44.90
2018-10-19T11:32:27.304Z,45.77
2018-10-19T11:33:27.310Z,45.87
2018-10-19T11:34:27.286Z,45.84
2018-10-19T11:35:27.282Z,44.89
2018-10-19T11:36:27.276Z,44.59
2018-10-19T11:37:27.293Z,45.46
2018-10-19T11:38:27.253Z,45.36
2018-10-19T11:39:27.252Z,46.71
2018-10-19T11:40:27.242Z,45.84
2018-10-19T11:41:27.233Z,45.36
2018-10-19T11:42:27.230Z,44.79
2018-10-19T11:43:27.221Z,44.79
2018-10-19T11:44:27.215Z,44.81
2018-10-19T11:45:27.211Z,44.81
2018-10-19T11:46:27.201Z,46.45
2018-10-19T11:47:27.194Z,45.60
2018-10-19T11:48:27.188Z,44.73
2018-10-19T11:49:27.180Z,44.93
2018-10-19T11:50:27.183Z,43.98
2018-10-19T11:51:27.170Z,43.50
2018-10-19T11:52:27.155Z,43.41
2018-10-19T11:53:27.152Z,44.20
2018-10-19T11:54:27.139Z,44.01
2018-10-19T11:55:27.136Z,42.93
2018-10-19T11:56:27.126Z,43.33
2018-10-19T11:57:27.121Z,43.72
2018-10-19T11:58:27.111Z,44.10
2018-10-19T11:59:27.106Z,42.85
2018-10-19T12:00:27.099Z,42.85
2018-10-19T12:01:27.085Z,43.43
2018-10-19T12:02:27.095Z,43.81
2018-10-19T12:03:27.097Z,42.94
2018-10-19T12:04:27.065Z,42.66
2018-10-19T12:05:27.060Z,42.94
2018-10-19T12:06:27.064Z,42.25
2018-10-19T12:07:27.056Z,42.63
2018-10-19T12:08:27.040Z,42.63
2018-10-19T12:09:27.038Z,43.98
2018-10-19T12:10:27.066Z,43.70
2018-10-19T12:11:27.025Z,43.60
2018-10-19T12:12:27.012Z,43.70
2018-10-19T12:13:27.009Z,43.89
2018-10-19T12:14:27.001Z,44.39
2018-10-19T12:15:26.999Z,44.97
2018-10-19T12:16:27.102Z,45.67
2018-10-19T12:17:26.981Z,44.03
2018-10-19T12:18:26.978Z,43.37
2018-10-19T12:19:26.967Z,43.66
2018-10-19T12:20:26.963Z,42.72
2018-10-19T12:21:27.019Z,42.62
2018-10-19T12:22:26.948Z,41.36
2018-10-19T12:23:26.940Z,40.98
2018-10-19T12:24:26.934Z,40.98
2018-10-19T12:25:26.928Z,40.88
2018-10-19T12:26:26.922Z,40.11
2018-10-19T12:27:26.917Z,40.69
2018-10-19T12:28:26.910Z,41.46
2018-10-19T12:29:26.903Z,42.25
2018-10-19T12:30:26.900Z,41.39
2018-10-19T12:31:26.890Z,40.71
2018-10-19T12:32:26.885Z,40.61
2018-10-19T12:33:26.876Z,39.84
2018-10-19T12:34:26.872Z,40.90
2018-10-19T12:35:26.906Z,41.39
2018-10-19T12:36:26.858Z,40.98
2018-10-19T12:37:26.849Z,40.23
2018-10-19T12:38:26.845Z,39.92
2018-10-19T12:39:26.837Z,40.42
2018-10-19T12:40:26.837Z,40.71
2018-10-19T12:41:26.827Z,41.39
2018-10-19T12:42:26.819Z,40.71
2018-10-19T12:43:26.815Z,41.00
2018-10-19T12:44:26.816Z,41.09
2018-10-19T12:45:26.803Z,41.97
2018-10-19T12:46:26.800Z,40.92
2018-10-19T12:47:26.881Z,39.57
2018-10-19T12:48:26.790Z,38.79
2018-10-19T12:49:26.780Z,38.50
2018-10-19T12:50:26.772Z,38.70
2018-10-19T12:51:26.768Z,38.58
2018-10-19T12:52:26.762Z,38.99